sensor_id;sensor_type;location;lat;lon;timestamp;P1;durP1;ratioP1;P2;durP2;ratioP2
7545;SDS011;3814;51.454;12.616;2022-11-15T00:00:51;33.63;;;13.27;;
7545;SDS011;3814;51.454;12.616;2022-11-15T00:03:18;32.65;;;12.32;;
7545;SDS011;3814;51.454;12.616;2022-11-15T00:05:49;31.52;;;13.23;;
7545;SDS011;3814;51.454;12.616;2022-11-15T00:08:14;32.10;;;12.88;;
7545;SDS011;3814;51.454;12.616;2022-11-15T00:10:39;36.17;;;13.05;;
7545;SDS011;3814;51.454;12.616;2022-11-15T00:13:11;32.72;;;13.07;;
7545;SDS011;3814;51.454;12.616;2022-11-15T00:15:38;31.73;;;12.07;;
7545;SDS011;3814;51.454;12.616;2022-11-15T00:18:04;33.58;;;12.98;;
7545;SDS011;3814;51.454;12.616;2022-11-15T00:20:30;33.58;;;12.70;;
7545;SDS011;3814;51.454;12.616;2022-11-15T00:22:55;30.10;;;12.13;;
7545;SDS011;3814;51.454;12.616;2022-11-15T00:25:20;34.33;;;12.57;;
7545;SDS011;3814;51.454;12.616;2022-11-15T00:27:46;34.13;;;12.27;;
7545;SDS011;3814;51.454;12.616;2022-11-15T00:30:11;32.53;;;11.82;;
7545;SDS011;3814;51.454;12.616;2022-11-15T00:32:37;31.75;;;11.65;;
7545;SDS011;3814;51.454;12.616;2022-11-15T00:35:02;29.80;;;12.07;;
7545;SDS011;3814;51.454;12.616;2022-11-15T00:37:28;33.83;;;11.85;;
7545;SDS011;3814;51.454;12.616;2022-11-15T00:39:54;29.20;;;11.75;;
7545;SDS011;3814;51.454;12.616;2022-11-15T00:42:19;33.40;;;12.18;;
7545;SDS011;3814;51.454;12.616;2022-11-15T00:44:44;30.65;;;12.00;;
7545;SDS011;3814;51.454;12.616;2022-11-15T00:47:10;29.48;;;11.15;;
7545;SDS011;3814;51.454;12.616;2022-11-15T00:49:35;28.02;;;10.98;;
7545;SDS011;3814;51.454;12.616;2022-11-15T00:52:00;28.80;;;10.93;;
7545;SDS011;3814;51.454;12.616;2022-11-15T00:54:25;30.67;;;12.25;;
7545;SDS011;3814;51.454;12.616;2022-11-15T00:56:51;30.55;;;11.50;;
7545;SDS011;3814;51.454;12.616;2022-11-15T00:59:16;30.10;;;11.63;;
7545;SDS011;3814;51.454;12.616;2022-11-15T01:01:41;25.38;;;10.25;;
7545;SDS011;3814;51.454;12.616;2022-11-15T01:04:07;25.40;;;9.77;;
7545;SDS011;3814;51.454;12.616;2022-11-15T01:06:32;23.77;;;9.32;;
7545;SDS011;3814;51.454;12.616;2022-11-15T01:08:57;24.52;;;9.10;;
7545;SDS011;3814;51.454;12.616;2022-11-15T01:11:22;23.45;;;9.80;;
7545;SDS011;3814;51.454;12.616;2022-11-15T01:13:48;26.92;;;9.88;;
7545;SDS011;3814;51.454;12.616;2022-11-15T01:16:15;25.60;;;9.68;;
7545;SDS011;3814;51.454;12.616;2022-11-15T01:18:42;26.23;;;10.02;;
7545;SDS011;3814;51.454;12.616;2022-11-15T01:21:08;25.83;;;9.77;;
7545;SDS011;3814;51.454;12.616;2022-11-15T01:23:35;22.42;;;9.20;;
7545;SDS011;3814;51.454;12.616;2022-11-15T01:26:00;23.10;;;9.68;;
7545;SDS011;3814;51.454;12.616;2022-11-15T01:28:31;23.55;;;9.00;;
7545;SDS011;3814;51.454;12.616;2022-11-15T01:31:01;22.52;;;9.45;;
7545;SDS011;3814;51.454;12.616;2022-11-15T01:33:27;22.17;;;8.15;;
7545;SDS011;3814;51.454;12.616;2022-11-15T01:35:53;20.65;;;8.77;;
7545;SDS011;3814;51.454;12.616;2022-11-15T01:38:18;19.52;;;8.05;;
7545;SDS011;3814;51.454;12.616;2022-11-15T01:40:44;17.65;;;7.47;;
7545;SDS011;3814;51.454;12.616;2022-11-15T01:45:59;21.63;;;9.18;;
7545;SDS011;3814;51.454;12.616;2022-11-15T01:48:30;19.95;;;8.20;;
7545;SDS011;3814;51.454;12.616;2022-11-15T01:50:58;19.23;;;7.60;;
7545;SDS011;3814;51.454;12.616;2022-11-15T01:53:24;17.98;;;8.07;;
7545;SDS011;3814;51.454;12.616;2022-11-15T01:55:50;18.80;;;7.95;;
7545;SDS011;3814;51.454;12.616;2022-11-15T01:58:16;19.55;;;8.43;;
7545;SDS011;3814;51.454;12.616;2022-11-15T02:00:41;17.73;;;7.80;;
7545;SDS011;3814;51.454;12.616;2022-11-15T02:03:07;15.80;;;7.18;;
7545;SDS011;3814;51.454;12.616;2022-11-15T02:05:32;18.15;;;7.57;;
7545;SDS011;3814;51.454;12.616;2022-11-15T02:07:59;17.33;;;7.18;;
7545;SDS011;3814;51.454;12.616;2022-11-15T02:10:24;17.67;;;6.75;;
7545;SDS011;3814;51.454;12.616;2022-11-15T02:12:50;15.35;;;6.47;;
7545;SDS011;3814;51.454;12.616;2022-11-15T02:15:16;18.08;;;7.70;;
7545;SDS011;3814;51.454;12.616;2022-11-15T02:20:43;17.10;;;7.07;;
7545;SDS011;3814;51.454;12.616;2022-11-15T02:23:35;18.70;;;7.40;;
7545;SDS011;3814;51.454;12.616;2022-11-15T02:28:40;18.13;;;7.60;;
7545;SDS011;3814;51.454;12.616;2022-11-15T02:33:57;16.08;;;7.38;;
7545;SDS011;3814;51.454;12.616;2022-11-15T02:36:44;16.90;;;6.78;;
7545;SDS011;3814;51.454;12.616;2022-11-15T02:39:34;15.48;;;7.22;;
7545;SDS011;3814;51.454;12.616;2022-11-15T02:42:05;14.32;;;6.30;;
7545;SDS011;3814;51.454;12.616;2022-11-15T02:44:53;15.00;;;6.47;;
7545;SDS011;3814;51.454;12.616;2022-11-15T02:47:18;11.95;;;5.60;;
7545;SDS011;3814;51.454;12.616;2022-11-15T02:49:46;12.75;;;6.50;;
7545;SDS011;3814;51.454;12.616;2022-11-15T02:52:16;14.27;;;6.63;;
7545;SDS011;3814;51.454;12.616;2022-11-15T02:54:42;15.18;;;6.30;;
7545;SDS011;3814;51.454;12.616;2022-11-15T02:57:10;14.00;;;5.85;;
7545;SDS011;3814;51.454;12.616;2022-11-15T02:59:44;10.60;;;5.20;;
7545;SDS011;3814;51.454;12.616;2022-11-15T03:02:18;13.13;;;5.95;;
7545;SDS011;3814;51.454;12.616;2022-11-15T03:05:13;14.25;;;5.68;;
7545;SDS011;3814;51.454;12.616;2022-11-15T03:07:51;13.55;;;6.15;;
7545;SDS011;3814;51.454;12.616;2022-11-15T03:10:23;13.65;;;5.63;;
7545;SDS011;3814;51.454;12.616;2022-11-15T03:15:24;14.05;;;6.57;;
7545;SDS011;3814;51.454;12.616;2022-11-15T03:17:55;14.30;;;6.32;;
7545;SDS011;3814;51.454;12.616;2022-11-15T03:20:40;16.27;;;6.85;;
7545;SDS011;3814;51.454;12.616;2022-11-15T03:23:08;18.42;;;6.82;;
7545;SDS011;3814;51.454;12.616;2022-11-15T03:25:36;15.63;;;7.03;;
7545;SDS011;3814;51.454;12.616;2022-11-15T03:28:04;16.38;;;7.47;;
7545;SDS011;3814;51.454;12.616;2022-11-15T03:33:05;14.68;;;6.85;;
7545;SDS011;3814;51.454;12.616;2022-11-15T03:35:38;16.90;;;7.18;;
7545;SDS011;3814;51.454;12.616;2022-11-15T03:46:27;13.73;;;5.93;;
7545;SDS011;3814;51.454;12.616;2022-11-15T03:49:04;14.68;;;6.32;;
7545;SDS011;3814;51.454;12.616;2022-11-15T03:51:39;13.95;;;6.40;;
7545;SDS011;3814;51.454;12.616;2022-11-15T03:54:04;14.75;;;6.85;;
7545;SDS011;3814;51.454;12.616;2022-11-15T03:56:30;14.50;;;6.55;;
7545;SDS011;3814;51.454;12.616;2022-11-15T03:58:56;13.93;;;5.72;;
7545;SDS011;3814;51.454;12.616;2022-11-15T04:01:21;14.10;;;6.05;;
7545;SDS011;3814;51.454;12.616;2022-11-15T04:03:46;15.70;;;6.78;;
7545;SDS011;3814;51.454;12.616;2022-11-15T04:06:12;12.73;;;6.18;;
7545;SDS011;3814;51.454;12.616;2022-11-15T04:08:37;14.15;;;6.68;;
7545;SDS011;3814;51.454;12.616;2022-11-15T04:11:02;14.88;;;6.25;;
7545;SDS011;3814;51.454;12.616;2022-11-15T04:13:28;17.20;;;7.43;;
7545;SDS011;3814;51.454;12.616;2022-11-15T04:15:53;17.98;;;7.20;;
7545;SDS011;3814;51.454;12.616;2022-11-15T04:18:18;16.92;;;6.95;;
7545;SDS011;3814;51.454;12.616;2022-11-15T04:20:44;17.95;;;7.03;;
7545;SDS011;3814;51.454;12.616;2022-11-15T04:23:28;17.65;;;6.80;;
7545;SDS011;3814;51.454;12.616;2022-11-15T04:26:15;14.98;;;6.47;;
7545;SDS011;3814;51.454;12.616;2022-11-15T04:28:42;17.92;;;6.93;;
7545;SDS011;3814;51.454;12.616;2022-11-15T04:31:26;15.57;;;7.13;;
7545;SDS011;3814;51.454;12.616;2022-11-15T04:33:52;18.30;;;7.20;;
7545;SDS011;3814;51.454;12.616;2022-11-15T04:36:17;15.75;;;6.93;;
7545;SDS011;3814;51.454;12.616;2022-11-15T04:39:02;16.67;;;6.95;;
7545;SDS011;3814;51.454;12.616;2022-11-15T04:41:27;17.73;;;7.28;;
7545;SDS011;3814;51.454;12.616;2022-11-15T04:43:54;17.30;;;7.18;;
7545;SDS011;3814;51.454;12.616;2022-11-15T04:46:19;17.45;;;7.15;;
7545;SDS011;3814;51.454;12.616;2022-11-15T04:48:44;18.00;;;7.22;;
7545;SDS011;3814;51.454;12.616;2022-11-15T04:51:10;17.00;;;7.65;;
7545;SDS011;3814;51.454;12.616;2022-11-15T04:53:35;15.70;;;6.75;;
7545;SDS011;3814;51.454;12.616;2022-11-15T04:56:00;16.85;;;6.55;;
7545;SDS011;3814;51.454;12.616;2022-11-15T04:58:26;17.25;;;7.57;;
7545;SDS011;3814;51.454;12.616;2022-11-15T05:00:51;18.05;;;7.50;;
7545;SDS011;3814;51.454;12.616;2022-11-15T05:03:16;17.40;;;7.50;;
7545;SDS011;3814;51.454;12.616;2022-11-15T05:06:00;17.25;;;6.97;;
7545;SDS011;3814;51.454;12.616;2022-11-15T05:08:26;17.17;;;7.28;;
7545;SDS011;3814;51.454;12.616;2022-11-15T05:10:51;15.95;;;6.80;;
7545;SDS011;3814;51.454;12.616;2022-11-15T05:13:16;14.05;;;6.28;;
7545;SDS011;3814;51.454;12.616;2022-11-15T05:15:42;14.60;;;5.90;;
7545;SDS011;3814;51.454;12.616;2022-11-15T05:18:07;15.48;;;6.25;;
7545;SDS011;3814;51.454;12.616;2022-11-15T05:20:32;13.48;;;6.05;;
7545;SDS011;3814;51.454;12.616;2022-11-15T05:22:58;14.02;;;5.95;;
7545;SDS011;3814;51.454;12.616;2022-11-15T05:25:23;16.95;;;6.35;;
7545;SDS011;3814;51.454;12.616;2022-11-15T05:27:49;14.77;;;6.43;;
7545;SDS011;3814;51.454;12.616;2022-11-15T05:30:14;13.55;;;6.63;;
7545;SDS011;3814;51.454;12.616;2022-11-15T05:32:40;12.40;;;5.57;;
7545;SDS011;3814;51.454;12.616;2022-11-15T05:35:05;16.38;;;6.45;;
7545;SDS011;3814;51.454;12.616;2022-11-15T05:37:32;13.27;;;5.55;;
7545;SDS011;3814;51.454;12.616;2022-11-15T05:39:57;12.82;;;5.93;;
7545;SDS011;3814;51.454;12.616;2022-11-15T05:42:22;13.48;;;5.82;;
7545;SDS011;3814;51.454;12.616;2022-11-15T05:44:50;15.85;;;5.63;;
7545;SDS011;3814;51.454;12.616;2022-11-15T05:47:17;12.90;;;5.63;;
7545;SDS011;3814;51.454;12.616;2022-11-15T05:49:45;12.85;;;5.80;;
7545;SDS011;3814;51.454;12.616;2022-11-15T05:52:11;10.93;;;5.32;;
7545;SDS011;3814;51.454;12.616;2022-11-15T05:54:38;12.38;;;5.57;;
7545;SDS011;3814;51.454;12.616;2022-11-15T05:57:04;10.57;;;4.93;;
7545;SDS011;3814;51.454;12.616;2022-11-15T05:59:30;11.75;;;5.00;;
7545;SDS011;3814;51.454;12.616;2022-11-15T06:01:56;11.60;;;5.28;;
7545;SDS011;3814;51.454;12.616;2022-11-15T06:04:22;13.18;;;5.57;;
7545;SDS011;3814;51.454;12.616;2022-11-15T06:06:47;14.40;;;5.75;;
7545;SDS011;3814;51.454;12.616;2022-11-15T06:09:13;14.77;;;5.97;;
7545;SDS011;3814;51.454;12.616;2022-11-15T06:11:38;14.35;;;5.70;;
7545;SDS011;3814;51.454;12.616;2022-11-15T06:14:03;12.38;;;5.63;;
7545;SDS011;3814;51.454;12.616;2022-11-15T06:16:29;12.75;;;5.45;;
7545;SDS011;3814;51.454;12.616;2022-11-15T06:18:54;13.60;;;5.72;;
7545;SDS011;3814;51.454;12.616;2022-11-15T06:21:19;11.98;;;5.60;;
7545;SDS011;3814;51.454;12.616;2022-11-15T06:23:45;13.63;;;5.20;;
7545;SDS011;3814;51.454;12.616;2022-11-15T06:26:10;10.77;;;4.75;;
7545;SDS011;3814;51.454;12.616;2022-11-15T06:28:35;12.15;;;5.07;;
7545;SDS011;3814;51.454;12.616;2022-11-15T06:31:08;13.15;;;5.50;;
7545;SDS011;3814;51.454;12.616;2022-11-15T06:33:35;11.57;;;5.32;;
7545;SDS011;3814;51.454;12.616;2022-11-15T06:36:02;8.98;;;4.72;;
7545;SDS011;3814;51.454;12.616;2022-11-15T06:38:28;8.50;;;4.80;;
7545;SDS011;3814;51.454;12.616;2022-11-15T06:40:54;10.45;;;5.18;;
7545;SDS011;3814;51.454;12.616;2022-11-15T06:43:19;11.15;;;5.03;;
7545;SDS011;3814;51.454;12.616;2022-11-15T06:45:44;11.07;;;5.00;;
7545;SDS011;3814;51.454;12.616;2022-11-15T06:48:09;12.95;;;6.28;;
7545;SDS011;3814;51.454;12.616;2022-11-15T06:50:35;12.23;;;4.90;;
7545;SDS011;3814;51.454;12.616;2022-11-15T06:53:01;10.40;;;5.20;;
7545;SDS011;3814;51.454;12.616;2022-11-15T06:55:27;11.02;;;4.93;;
7545;SDS011;3814;51.454;12.616;2022-11-15T06:57:53;10.52;;;5.32;;
7545;SDS011;3814;51.454;12.616;2022-11-15T07:00:19;12.60;;;5.50;;
7545;SDS011;3814;51.454;12.616;2022-11-15T07:02:46;10.60;;;5.03;;
7545;SDS011;3814;51.454;12.616;2022-11-15T07:05:12;12.75;;;4.85;;
7545;SDS011;3814;51.454;12.616;2022-11-15T07:07:38;11.00;;;5.50;;
7545;SDS011;3814;51.454;12.616;2022-11-15T07:23:45;8.90;;;4.18;;
7545;SDS011;3814;51.454;12.616;2022-11-15T07:26:14;9.23;;;4.70;;
7545;SDS011;3814;51.454;12.616;2022-11-15T07:31:55;11.43;;;4.53;;
7545;SDS011;3814;51.454;12.616;2022-11-15T07:34:21;12.52;;;5.03;;
7545;SDS011;3814;51.454;12.616;2022-11-15T07:36:53;9.75;;;4.38;;
7545;SDS011;3814;51.454;12.616;2022-11-15T07:39:19;8.07;;;4.38;;
7545;SDS011;3814;51.454;12.616;2022-11-15T07:41:44;10.75;;;5.18;;
7545;SDS011;3814;51.454;12.616;2022-11-15T07:44:11;9.68;;;4.47;;
7545;SDS011;3814;51.454;12.616;2022-11-15T07:46:42;8.32;;;4.40;;
7545;SDS011;3814;51.454;12.616;2022-11-15T07:49:07;9.40;;;4.82;;
7545;SDS011;3814;51.454;12.616;2022-11-15T07:51:36;11.73;;;4.60;;
7545;SDS011;3814;51.454;12.616;2022-11-15T07:54:01;9.65;;;4.38;;
7545;SDS011;3814;51.454;12.616;2022-11-15T07:56:27;6.78;;;3.55;;
7545;SDS011;3814;51.454;12.616;2022-11-15T07:58:52;7.18;;;3.72;;
7545;SDS011;3814;51.454;12.616;2022-11-15T08:01:20;7.35;;;3.60;;
7545;SDS011;3814;51.454;12.616;2022-11-15T08:03:46;9.90;;;3.85;;
7545;SDS011;3814;51.454;12.616;2022-11-15T08:06:11;6.07;;;3.40;;
7545;SDS011;3814;51.454;12.616;2022-11-15T08:08:36;6.57;;;3.50;;
7545;SDS011;3814;51.454;12.616;2022-11-15T08:16:12;7.88;;;3.83;;
7545;SDS011;3814;51.454;12.616;2022-11-15T08:18:41;6.78;;;3.75;;
7545;SDS011;3814;51.454;12.616;2022-11-15T08:26:26;7.82;;;3.90;;
7545;SDS011;3814;51.454;12.616;2022-11-15T08:28:56;7.75;;;3.47;;
7545;SDS011;3814;51.454;12.616;2022-11-15T08:31:21;5.95;;;3.42;;
7545;SDS011;3814;51.454;12.616;2022-11-15T08:33:46;7.70;;;3.95;;
7545;SDS011;3814;51.454;12.616;2022-11-15T08:36:18;6.10;;;3.45;;
7545;SDS011;3814;51.454;12.616;2022-11-15T08:38:46;5.97;;;3.55;;
7545;SDS011;3814;51.454;12.616;2022-11-15T08:43:46;6.78;;;3.67;;
7545;SDS011;3814;51.454;12.616;2022-11-15T08:46:17;6.90;;;3.67;;
7545;SDS011;3814;51.454;12.616;2022-11-15T08:48:45;6.97;;;3.50;;
7545;SDS011;3814;51.454;12.616;2022-11-15T08:51:10;7.18;;;3.70;;
7545;SDS011;3814;51.454;12.616;2022-11-15T08:53:35;7.47;;;4.00;;
7545;SDS011;3814;51.454;12.616;2022-11-15T08:56:01;6.40;;;3.55;;
7545;SDS011;3814;51.454;12.616;2022-11-15T09:01:14;6.10;;;3.33;;
7545;SDS011;3814;51.454;12.616;2022-11-15T09:03:48;7.50;;;3.47;;
7545;SDS011;3814;51.454;12.616;2022-11-15T09:09:01;8.18;;;4.00;;
7545;SDS011;3814;51.454;12.616;2022-11-15T09:11:27;6.45;;;3.50;;
7545;SDS011;3814;51.454;12.616;2022-11-15T09:13:52;6.72;;;3.92;;
7545;SDS011;3814;51.454;12.616;2022-11-15T09:16:17;5.85;;;3.65;;
7545;SDS011;3814;51.454;12.616;2022-11-15T09:18:43;6.35;;;3.67;;
7545;SDS011;3814;51.454;12.616;2022-11-15T09:21:08;7.38;;;3.70;;
7545;SDS011;3814;51.454;12.616;2022-11-15T09:23:34;10.43;;;4.10;;
7545;SDS011;3814;51.454;12.616;2022-11-15T09:26:00;7.80;;;4.00;;
7545;SDS011;3814;51.454;12.616;2022-11-15T09:28:28;8.05;;;3.80;;
7545;SDS011;3814;51.454;12.616;2022-11-15T09:30:57;7.53;;;3.88;;
7545;SDS011;3814;51.454;12.616;2022-11-15T09:33:23;5.47;;;3.40;;
7545;SDS011;3814;51.454;12.616;2022-11-15T09:35:49;6.85;;;3.50;;
7545;SDS011;3814;51.454;12.616;2022-11-15T09:38:14;6.32;;;3.47;;
7545;SDS011;3814;51.454;12.616;2022-11-15T09:40:40;8.20;;;3.38;;
7545;SDS011;3814;51.454;12.616;2022-11-15T09:45:55;7.82;;;3.50;;
7545;SDS011;3814;51.454;12.616;2022-11-15T09:56:29;7.78;;;3.22;;
7545;SDS011;3814;51.454;12.616;2022-11-15T09:59:10;6.13;;;3.60;;
7545;SDS011;3814;51.454;12.616;2022-11-15T10:02:03;4.32;;;2.75;;
7545;SDS011;3814;51.454;12.616;2022-11-15T10:04:37;5.95;;;3.22;;
7545;SDS011;3814;51.454;12.616;2022-11-15T10:07:10;6.78;;;3.17;;
7545;SDS011;3814;51.454;12.616;2022-11-15T10:10:02;5.05;;;2.80;;
7545;SDS011;3814;51.454;12.616;2022-11-15T10:12:28;8.65;;;3.42;;
7545;SDS011;3814;51.454;12.616;2022-11-15T10:15:05;5.00;;;2.92;;
7545;SDS011;3814;51.454;12.616;2022-11-15T10:20:51;5.35;;;3.20;;
7545;SDS011;3814;51.454;12.616;2022-11-15T10:23:22;4.80;;;2.80;;
7545;SDS011;3814;51.454;12.616;2022-11-15T10:25:50;4.93;;;2.90;;
7545;SDS011;3814;51.454;12.616;2022-11-15T10:28:17;5.03;;;2.72;;
7545;SDS011;3814;51.454;12.616;2022-11-15T10:30:48;4.88;;;3.20;;
7545;SDS011;3814;51.454;12.616;2022-11-15T10:36:21;8.20;;;3.53;;
7545;SDS011;3814;51.454;12.616;2022-11-15T10:41:16;7.55;;;3.35;;
7545;SDS011;3814;51.454;12.616;2022-11-15T10:43:44;6.72;;;3.50;;
7545;SDS011;3814;51.454;12.616;2022-11-15T10:46:22;6.05;;;3.03;;
7545;SDS011;3814;51.454;12.616;2022-11-15T10:48:48;5.97;;;3.13;;
7545;SDS011;3814;51.454;12.616;2022-11-15T10:51:20;5.55;;;3.03;;
7545;SDS011;3814;51.454;12.616;2022-11-15T10:53:53;5.78;;;2.80;;
7545;SDS011;3814;51.454;12.616;2022-11-15T10:56:20;8.93;;;3.65;;
7545;SDS011;3814;51.454;12.616;2022-11-15T10:58:50;6.47;;;3.47;;
7545;SDS011;3814;51.454;12.616;2022-11-15T11:01:19;7.35;;;3.05;;
7545;SDS011;3814;51.454;12.616;2022-11-15T11:04:03;5.63;;;3.25;;
7545;SDS011;3814;51.454;12.616;2022-11-15T11:06:50;4.82;;;2.88;;
7545;SDS011;3814;51.454;12.616;2022-11-15T11:09:36;5.95;;;3.00;;
7545;SDS011;3814;51.454;12.616;2022-11-15T11:12:03;6.72;;;2.80;;
7545;SDS011;3814;51.454;12.616;2022-11-15T11:17:09;5.78;;;2.97;;
7545;SDS011;3814;51.454;12.616;2022-11-15T11:20:20;6.80;;;3.10;;
7545;SDS011;3814;51.454;12.616;2022-11-15T11:25:46;5.47;;;2.95;;
7545;SDS011;3814;51.454;12.616;2022-11-15T11:31:44;6.93;;;3.00;;
7545;SDS011;3814;51.454;12.616;2022-11-15T11:45:19;8.82;;;3.30;;
7545;SDS011;3814;51.454;12.616;2022-11-15T13:16:46;6.78;;;2.90;;
7545;SDS011;3814;51.454;12.616;2022-11-15T13:50:31;5.10;;;2.53;;
7545;SDS011;3814;51.454;12.616;2022-11-15T13:52:59;5.25;;;2.78;;
7545;SDS011;3814;51.454;12.616;2022-11-15T13:55:26;7.20;;;3.28;;
7545;SDS011;3814;51.454;12.616;2022-11-15T13:57:54;7.03;;;3.08;;
7545;SDS011;3814;51.454;12.616;2022-11-15T14:03:18;6.75;;;3.00;;
7545;SDS011;3814;51.454;12.616;2022-11-15T14:11:09;4.60;;;2.90;;
7545;SDS011;3814;51.454;12.616;2022-11-15T14:13:39;5.18;;;2.88;;
7545;SDS011;3814;51.454;12.616;2022-11-15T14:16:15;7.07;;;3.22;;
7545;SDS011;3814;51.454;12.616;2022-11-15T14:18:51;8.70;;;3.28;;
7545;SDS011;3814;51.454;12.616;2022-11-15T14:21:18;6.13;;;2.85;;
7545;SDS011;3814;51.454;12.616;2022-11-15T15:01:29;13.50;;;5.60;;
7545;SDS011;3814;51.454;12.616;2022-11-15T15:03:55;10.13;;;5.68;;
7545;SDS011;3814;51.454;12.616;2022-11-15T15:06:22;13.75;;;5.43;;
7545;SDS011;3814;51.454;12.616;2022-11-15T15:08:47;13.35;;;6.35;;
7545;SDS011;3814;51.454;12.616;2022-11-15T15:11:22;14.30;;;6.53;;
7545;SDS011;3814;51.454;12.616;2022-11-15T15:13:49;13.55;;;6.50;;
7545;SDS011;3814;51.454;12.616;2022-11-15T15:16:14;13.75;;;6.38;;
7545;SDS011;3814;51.454;12.616;2022-11-15T15:18:40;14.15;;;6.90;;
7545;SDS011;3814;51.454;12.616;2022-11-15T15:21:18;11.73;;;6.00;;
7545;SDS011;3814;51.454;12.616;2022-11-15T15:23:46;15.13;;;6.18;;
7545;SDS011;3814;51.454;12.616;2022-11-15T15:26:11;15.13;;;7.40;;
7545;SDS011;3814;51.454;12.616;2022-11-15T15:28:36;14.63;;;6.68;;
7545;SDS011;3814;51.454;12.616;2022-11-15T15:31:03;13.00;;;6.60;;
7545;SDS011;3814;51.454;12.616;2022-11-15T15:33:29;15.27;;;7.32;;
7545;SDS011;3814;51.454;12.616;2022-11-15T15:35:54;13.40;;;6.68;;
7545;SDS011;3814;51.454;12.616;2022-11-15T15:38:19;17.50;;;7.60;;
7545;SDS011;3814;51.454;12.616;2022-11-15T15:40:45;15.93;;;7.28;;
7545;SDS011;3814;51.454;12.616;2022-11-15T15:43:10;15.45;;;7.60;;
7545;SDS011;3814;51.454;12.616;2022-11-15T15:45:39;19.23;;;8.18;;
7545;SDS011;3814;51.454;12.616;2022-11-15T15:48:05;16.58;;;7.65;;
7545;SDS011;3814;51.454;12.616;2022-11-15T15:50:34;16.90;;;7.28;;
7545;SDS011;3814;51.454;12.616;2022-11-15T15:53:00;18.00;;;7.97;;
7545;SDS011;3814;51.454;12.616;2022-11-15T15:55:27;15.27;;;6.97;;
7545;SDS011;3814;51.454;12.616;2022-11-15T15:57:53;16.45;;;7.55;;
7545;SDS011;3814;51.454;12.616;2022-11-15T16:00:19;15.75;;;7.78;;
7545;SDS011;3814;51.454;12.616;2022-11-15T16:02:46;16.52;;;7.45;;
7545;SDS011;3814;51.454;12.616;2022-11-15T16:05:12;17.77;;;7.65;;
7545;SDS011;3814;51.454;12.616;2022-11-15T16:07:37;18.33;;;8.35;;
7545;SDS011;3814;51.454;12.616;2022-11-15T16:10:23;14.50;;;7.50;;
7545;SDS011;3814;51.454;12.616;2022-11-15T16:12:50;15.52;;;8.05;;
7545;SDS011;3814;51.454;12.616;2022-11-15T16:15:15;15.20;;;7.32;;
7545;SDS011;3814;51.454;12.616;2022-11-15T16:17:44;18.13;;;7.47;;
7545;SDS011;3814;51.454;12.616;2022-11-15T16:20:20;17.45;;;7.43;;
7545;SDS011;3814;51.454;12.616;2022-11-15T16:22:49;16.75;;;8.18;;
7545;SDS011;3814;51.454;12.616;2022-11-15T16:25:14;19.63;;;8.57;;
7545;SDS011;3814;51.454;12.616;2022-11-15T16:27:39;18.73;;;9.20;;
7545;SDS011;3814;51.454;12.616;2022-11-15T16:30:19;18.05;;;8.13;;
7545;SDS011;3814;51.454;12.616;2022-11-15T16:32:45;22.30;;;9.25;;
7545;SDS011;3814;51.454;12.616;2022-11-15T16:35:14;23.88;;;9.32;;
7545;SDS011;3814;51.454;12.616;2022-11-15T16:37:40;18.55;;;8.45;;
7545;SDS011;3814;51.454;12.616;2022-11-15T16:42:54;16.20;;;8.02;;
7545;SDS011;3814;51.454;12.616;2022-11-15T16:45:20;16.13;;;7.93;;
7545;SDS011;3814;51.454;12.616;2022-11-15T16:47:46;19.10;;;8.52;;
7545;SDS011;3814;51.454;12.616;2022-11-15T16:50:28;16.13;;;7.93;;
7545;SDS011;3814;51.454;12.616;2022-11-15T16:52:55;15.93;;;7.85;;
7545;SDS011;3814;51.454;12.616;2022-11-15T16:55:22;22.70;;;9.13;;
7545;SDS011;3814;51.454;12.616;2022-11-15T16:57:49;16.33;;;7.82;;
7545;SDS011;3814;51.454;12.616;2022-11-15T17:00:15;18.75;;;8.55;;
7545;SDS011;3814;51.454;12.616;2022-11-15T17:02:44;14.40;;;7.80;;
7545;SDS011;3814;51.454;12.616;2022-11-15T17:05:13;15.20;;;7.68;;
7545;SDS011;3814;51.454;12.616;2022-11-15T17:07:39;19.45;;;8.93;;
7545;SDS011;3814;51.454;12.616;2022-11-15T17:10:05;16.85;;;8.23;;
7545;SDS011;3814;51.454;12.616;2022-11-15T17:12:32;18.23;;;8.77;;
7545;SDS011;3814;51.454;12.616;2022-11-15T17:14:58;20.85;;;9.35;;
7545;SDS011;3814;51.454;12.616;2022-11-15T17:17:23;21.05;;;9.00;;
7545;SDS011;3814;51.454;12.616;2022-11-15T17:19:50;18.73;;;8.57;;
7545;SDS011;3814;51.454;12.616;2022-11-15T17:22:16;18.77;;;9.23;;
7545;SDS011;3814;51.454;12.616;2022-11-15T17:24:41;16.73;;;8.80;;
7545;SDS011;3814;51.454;12.616;2022-11-15T17:27:06;17.95;;;8.88;;
7545;SDS011;3814;51.454;12.616;2022-11-15T17:29:32;17.20;;;8.60;;
7545;SDS011;3814;51.454;12.616;2022-11-15T17:31:57;27.17;;;12.05;;
7545;SDS011;3814;51.454;12.616;2022-11-15T17:34:22;30.23;;;13.30;;
7545;SDS011;3814;51.454;12.616;2022-11-15T17:36:48;26.60;;;12.63;;
7545;SDS011;3814;51.454;12.616;2022-11-15T17:39:13;23.00;;;11.43;;
7545;SDS011;3814;51.454;12.616;2022-11-15T17:41:38;21.33;;;10.25;;
7545;SDS011;3814;51.454;12.616;2022-11-15T17:44:04;20.13;;;9.30;;
7545;SDS011;3814;51.454;12.616;2022-11-15T17:46:29;21.70;;;9.65;;
7545;SDS011;3814;51.454;12.616;2022-11-15T17:48:55;19.70;;;9.90;;
7545;SDS011;3814;51.454;12.616;2022-11-15T17:51:21;21.75;;;10.20;;
7545;SDS011;3814;51.454;12.616;2022-11-15T17:53:48;26.67;;;10.93;;
7545;SDS011;3814;51.454;12.616;2022-11-15T17:56:15;28.30;;;12.73;;
7545;SDS011;3814;51.454;12.616;2022-11-15T17:58:46;31.23;;;14.30;;
7545;SDS011;3814;51.454;12.616;2022-11-15T18:01:30;32.03;;;13.68;;
7545;SDS011;3814;51.454;12.616;2022-11-15T18:03:57;30.50;;;12.40;;
7545;SDS011;3814;51.454;12.616;2022-11-15T18:06:24;30.55;;;12.85;;
7545;SDS011;3814;51.454;12.616;2022-11-15T18:08:51;31.25;;;13.68;;
7545;SDS011;3814;51.454;12.616;2022-11-15T18:11:19;32.85;;;14.48;;
7545;SDS011;3814;51.454;12.616;2022-11-15T18:13:47;58.97;;;26.38;;
7545;SDS011;3814;51.454;12.616;2022-11-15T18:16:14;59.20;;;29.02;;
7545;SDS011;3814;51.454;12.616;2022-11-15T18:18:41;63.08;;;31.70;;
7545;SDS011;3814;51.454;12.616;2022-11-15T18:23:34;57.03;;;26.73;;
7545;SDS011;3814;51.454;12.616;2022-11-15T18:26:00;47.03;;;23.02;;
7545;SDS011;3814;51.454;12.616;2022-11-15T18:28:33;44.28;;;20.20;;
7545;SDS011;3814;51.454;12.616;2022-11-15T18:31:01;42.60;;;18.08;;
7545;SDS011;3814;51.454;12.616;2022-11-15T18:33:27;33.15;;;15.27;;
7545;SDS011;3814;51.454;12.616;2022-11-15T18:35:58;34.08;;;15.02;;
7545;SDS011;3814;51.454;12.616;2022-11-15T18:38:28;35.05;;;15.30;;
7545;SDS011;3814;51.454;12.616;2022-11-15T18:41:03;33.92;;;15.05;;
7545;SDS011;3814;51.454;12.616;2022-11-15T18:43:30;33.33;;;14.02;;
7545;SDS011;3814;51.454;12.616;2022-11-15T18:46:00;38.03;;;15.95;;
7545;SDS011;3814;51.454;12.616;2022-11-15T18:48:30;58.25;;;26.38;;
7545;SDS011;3814;51.454;12.616;2022-11-15T18:51:00;68.45;;;31.98;;
7545;SDS011;3814;51.454;12.616;2022-11-15T18:53:26;56.38;;;27.85;;
7545;SDS011;3814;51.454;12.616;2022-11-15T18:55:51;51.65;;;24.15;;
7545;SDS011;3814;51.454;12.616;2022-11-15T18:58:17;45.13;;;21.00;;
7545;SDS011;3814;51.454;12.616;2022-11-15T19:00:42;44.35;;;18.95;;
7545;SDS011;3814;51.454;12.616;2022-11-15T19:03:07;39.80;;;18.42;;
7545;SDS011;3814;51.454;12.616;2022-11-15T19:05:33;38.47;;;17.42;;
7545;SDS011;3814;51.454;12.616;2022-11-15T19:07:59;43.08;;;18.08;;
7545;SDS011;3814;51.454;12.616;2022-11-15T19:10:24;42.33;;;17.60;;
7545;SDS011;3814;51.454;12.616;2022-11-15T19:12:50;44.10;;;19.75;;
7545;SDS011;3814;51.454;12.616;2022-11-15T19:15:15;44.17;;;20.13;;
7545;SDS011;3814;51.454;12.616;2022-11-15T19:17:40;55.03;;;24.52;;
7545;SDS011;3814;51.454;12.616;2022-11-15T19:20:06;60.30;;;26.60;;
7545;SDS011;3814;51.454;12.616;2022-11-15T19:22:31;44.03;;;19.75;;
7545;SDS011;3814;51.454;12.616;2022-11-15T19:24:57;42.85;;;16.98;;